Doyle Atmospheric Data: 03/22/2019 Summary  Detailed Graphs  Station List

  Temperature     Wind Precipitation Visibility
Timestamp Air Wet
Bulb
Dew-
point
24-hr
Max
24-hr
Min
Relative
Humidity
Atmospheric
Pressure
Avg
Speed
Avg
Dir
Spot
Speed
Spot
Dir
Max
Speed
Max
Dir
  Rate Situation Start End 1 hr 3 hr 6 hr 12 hr 24 hr   Situation
Date Time °F °F °F °F °F % in Hg mph ° mph ° mph ° Y/N in/hr text Date Time Date Time in in in in in mi text
03/22/2019 12:04 AM 41.90 37.76 32.36 54.32 33.44 68.0 Not Reported 4.47 E 4.70 E 6.49 SE No 0.000 No Precipitation 03/20/2019 05:45 AM 03/20/2019 05:50 AM 0.000 0.000 0.000 0.000 0.000 Not Reported Not Reported
03/22/2019 12:09 AM 41.54 37.76 32.36 54.32 33.44 69.0 Not Reported 6.71 E 7.83 E 6.49 SE No 0.000 No Precipitation 03/20/2019 05:45 AM 03/20/2019 05:50 AM 0.000 0.000 0.000 0.000 0.000 Not Reported Not Reported
03/22/2019 12:14 AM 41.54 37.58 32.00 54.32 33.44 68.0 Not Reported 7.83 E 9.17 E 8.05 SE No 0.000 No Precipitation 03/20/2019 05:45 AM 03/20/2019 05:50 AM 0.000 0.000 0.000 0.000 0.000 Not Reported Not Reported
03/22/2019 12:19 AM 41.36 37.40 32.18 54.32 33.44 69.0 Not Reported 9.40 E 8.72 SE 8.05 SE No 0.000 No Precipitation 03/20/2019 05:45 AM 03/20/2019 05:50 AM 0.000 0.000 0.000 0.000 0.000 Not Reported Not Reported
03/22/2019 12:24 AM 41.18 37.40 32.18 54.32 33.44 69.0 Not Reported 6.93 SE 7.16 SE 10.74 E No 0.000 No Precipitation 03/20/2019 05:45 AM 03/20/2019 05:50 AM 0.000 0.000 0.000 0.000 0.000 Not Reported Not Reported
03/22/2019 12:29 AM 41.18 37.40 32.00 54.32 33.44 69.0 Not Reported 4.47 SE 4.03 SE 10.74 E No 0.000 No Precipitation 03/20/2019 05:45 AM 03/20/2019 05:50 AM 0.000 0.000 0.000 0.000 0.000 Not Reported Not Reported
03/22/2019 12:34 AM 40.10 36.68 31.82 54.32 33.44 71.0 Not Reported 2.91 S 3.13 W 9.84 E No 0.000 No Precipitation 03/20/2019 05:45 AM 03/20/2019 05:50 AM 0.000 0.000 0.000 0.000 0.000 Not Reported Not Reported
03/22/2019 12:39 AM 39.56 36.32 32.00 54.32 33.44 73.0 Not Reported 4.92 SW 6.49 SW 9.84 E No 0.000 No Precipitation 03/20/2019 05:45 AM 03/20/2019 05:50 AM 0.000 0.000 0.000 0.000 0.000 Not Reported Not Reported
03/22/2019 12:44 AM 40.64 36.86 32.00 54.32 33.44 70.0 Not Reported 3.58 S 4.25 S 6.93 S No 0.000 No Precipitation 03/20/2019 05:45 AM 03/20/2019 05:50 AM 0.000 0.000 0.000 0.000 0.000 Not Reported Not Reported
03/22/2019 12:49 AM 40.64 37.04 32.00 54.32 33.44 70.0 Not Reported 2.68 SW 3.13 SW 6.93 S No 0.000 No Precipitation 03/20/2019 05:45 AM 03/20/2019 05:50 AM 0.000 0.000 0.000 0.000 0.000 Not Reported Not Reported
03/22/2019 12:54 AM 41.18 37.22 31.82 54.32 33.44 68.0 Not Reported 0.67 SE 1.12 E 4.25 S No 0.000 No Precipitation 03/20/2019 05:45 AM 03/20/2019 05:50 AM 0.000 0.000 0.000 0.000 0.000 Not Reported Not Reported
03/22/2019 12:59 AM 41.36 37.22 31.64 54.32 33.44 67.0 Not Reported 2.01 NE 3.58 NE 4.25 S No 0.000 No Precipitation 03/20/2019 05:45 AM 03/20/2019 05:50 AM 0.000 0.000 0.000 0.000 0.000 Not Reported Not Reported
03/22/2019 01:04 AM 41.00 37.04 31.46 54.32 33.44 68.0 Not Reported 3.13 N 3.58 N 3.58 NE No 0.000 No Precipitation 03/20/2019 05:45 AM 03/20/2019 05:50 AM 0.000 0.000 0.000 0.000 0.000 Not Reported Not Reported
03/22/2019 01:09 AM 40.28 36.50 31.28 54.32 33.44 69.0 Not Reported 3.58 N 2.91 NE 3.58 NE No 0.000 No Precipitation 03/20/2019 05:45 AM 03/20/2019 05:50 AM 0.000 0.000 0.000 0.000 0.000 Not Reported Not Reported
03/22/2019 01:14 AM 39.56 35.96 31.10 54.32 33.44 70.0 Not Reported 1.12 E 2.01 E 3.80 N No 0.000 No Precipitation 03/20/2019 05:45 AM 03/20/2019 05:50 AM 0.000 0.000 0.000 0.000 0.000 Not Reported Not Reported
03/22/2019 01:19 AM 38.84 35.42 30.74 54.32 33.44 72.0 Not Reported 1.79 E 4.47 E 3.80 N No 0.000 No Precipitation 03/20/2019 05:45 AM 03/20/2019 05:50 AM 0.000 0.000 0.000 0.000 0.000 Not Reported Not Reported
03/22/2019 01:24 AM 37.94 35.06 31.10 54.32 33.44 75.0 Not Reported 3.13 NE 3.36 NE 4.70 E No 0.000 No Precipitation 03/20/2019 05:45 AM 03/20/2019 05:50 AM 0.000 0.000 0.000 0.000 0.000 Not Reported Not Reported
03/22/2019 01:29 AM 37.94 35.06 31.10 54.32 33.44 75.0 Not Reported 3.80 NE 4.47 NE 4.70 E No 0.000 No Precipitation 03/20/2019 05:45 AM 03/20/2019 05:50 AM 0.000 0.000 0.000 0.000 0.000 Not Reported Not Reported
03/22/2019 01:34 AM 37.04 34.52 30.92 54.32 33.44 77.0 Not Reported 2.68 NE 2.01 N 4.70 NE No 0.000 No Precipitation 03/20/2019 05:45 AM 03/20/2019 05:50 AM 0.000 0.000 0.000 0.000 0.000 Not Reported Not Reported
03/22/2019 01:39 AM 37.76 34.88 30.92 54.32 33.44 75.0 Not Reported 1.57 NE 1.57 NE 4.70 NE No 0.000 No Precipitation 03/20/2019 05:45 AM 03/20/2019 05:50 AM 0.000 0.000 0.000 0.000 0.000 Not Reported Not Reported
03/22/2019 01:44 AM 37.04 34.34 30.38 54.32 33.44 75.0 Not Reported 0.45 SW 1.79 SW 4.47 NE No 0.000 No Precipitation 03/20/2019 05:45 AM 03/20/2019 05:50 AM 0.000 0.000 0.000 0.000 0.000 Not Reported Not Reported
03/22/2019 01:49 AM 36.68 34.16 30.56 54.32 33.44 77.0 Not Reported 2.24 SW 2.46 SW 4.47 NE No 0.000 No Precipitation 03/20/2019 05:45 AM 03/20/2019 05:50 AM 0.000 0.000 0.000 0.000 0.000 Not Reported Not Reported
03/22/2019 01:54 AM 35.96 33.62 30.38 54.32 33.44 79.0 Not Reported 0.45 SE 0.00 SE 2.46 SW No 0.000 No Precipitation 03/20/2019 05:45 AM 03/20/2019 05:50 AM 0.000 0.000 0.000 0.000 0.000 Not Reported Not Reported
03/22/2019 01:59 AM 36.68 34.34 30.92 54.32 33.44 78.0 Not Reported 0.00 N 0.00 S 2.46 SW No 0.000 No Precipitation 03/20/2019 05:45 AM 03/20/2019 05:50 AM 0.000 0.000 0.000 0.000 0.000 Not Reported Not Reported
03/22/2019 02:04 AM 37.76 34.88 30.92 54.32 33.44 75.0 Not Reported 0.22 E 1.34 NE 1.79 S No 0.000 No Precipitation 03/20/2019 05:45 AM 03/20/2019 05:50 AM 0.000 0.000 0.000 0.000 0.000 Not Reported Not Reported
03/22/2019 02:09 AM 38.84 35.60 31.10 54.32 33.44 72.0 Not Reported 2.01 E 1.34 NE 1.79 S No 0.000 No Precipitation 03/20/2019 05:45 AM 03/20/2019 05:50 AM 0.000 0.000 0.000 0.000 0.000 Not Reported Not Reported
03/22/2019 02:14 AM 39.02 35.60 30.74 54.32 33.44 71.0 Not Reported 2.46 E 3.13 E 2.46 E No 0.000 No Precipitation 03/20/2019 05:45 AM 03/20/2019 05:50 AM 0.000 0.000 0.000 0.000 0.000 Not Reported Not Reported
03/22/2019 02:19 AM 38.84 35.42 30.56 54.32 33.44 71.0 Not Reported 2.01 E 1.34 E 2.46 E No 0.000 No Precipitation 03/20/2019 05:45 AM 03/20/2019 05:50 AM 0.000 0.000 0.000 0.000 0.000 Not Reported Not Reported
03/22/2019 02:24 AM 37.22 34.34 30.20 54.32 33.44 74.0 Not Reported 1.34 SE 2.46 E 3.13 E No 0.000 No Precipitation 03/20/2019 05:45 AM 03/20/2019 05:50 AM 0.000 0.000 0.000 0.000 0.000 Not Reported Not Reported
03/22/2019 02:29 AM 36.86 34.16 30.38 54.32 33.44 76.0 Not Reported 1.79 E 2.46 NE 3.13 E No 0.000 No Precipitation 03/20/2019 05:45 AM 03/20/2019 05:50 AM 0.000 0.000 0.000 0.000 0.000 Not Reported Not Reported
03/22/2019 02:34 AM 36.68 33.98 30.20 54.32 33.44 76.0 Not Reported 2.24 NE 2.68 NE 2.91 SE No 0.000 No Precipitation 03/20/2019 05:45 AM 03/20/2019 05:50 AM 0.000 0.000 0.000 0.000 0.000 Not Reported Not Reported
03/22/2019 02:39 AM 36.14 33.62 30.02 54.32 33.44 77.0 Not Reported 2.68 E 1.79 E 2.91 SE No 0.000 No Precipitation 03/20/2019 05:45 AM 03/20/2019 05:50 AM 0.000 0.000 0.000 0.000 0.000 Not Reported Not Reported
03/22/2019 02:44 AM 34.88 32.72 29.30 54.32 33.44 79.0 Not Reported 0.22 S 1.34 S 3.13 NE No 0.000 No Precipitation 03/20/2019 05:45 AM 03/20/2019 05:50 AM 0.000 0.000 0.000 0.000 0.000 Not Reported Not Reported
03/22/2019 02:49 AM 34.70 32.54 29.48 54.32 33.44 80.0 Not Reported 3.36 SW 2.46 W 3.13 NE No 0.000 No Precipitation 03/20/2019 05:45 AM 03/20/2019 05:50 AM 0.000 0.000 0.000 0.000 0.000 Not Reported Not Reported
03/22/2019 02:54 AM 35.60 33.44 30.20 54.32 33.44 79.0 Not Reported 0.22 SW 0.89 S 3.80 SW No 0.000 No Precipitation 03/20/2019 05:45 AM 03/20/2019 05:50 AM 0.000 0.000 0.000 0.000 0.000 Not Reported Not Reported
03/22/2019 02:59 AM 37.22 34.34 30.20 54.32 33.44 75.0 Not Reported 2.46 E 3.80 SE 3.80 SW No 0.000 No Precipitation 03/20/2019 05:45 AM 03/20/2019 05:50 AM 0.000 0.000 0.000 0.000 0.000 Not Reported Not Reported
03/22/2019 03:04 AM 35.24 32.72 28.76 54.32 33.44 76.0 Not Reported 3.36 SE 2.68 SE 3.80 SE No 0.000 No Precipitation 03/20/2019 05:45 AM 03/20/2019 05:50 AM 0.000 0.000 0.000 0.000 0.000 Not Reported Not Reported
03/22/2019 03:09 AM 35.60 33.26 29.66 54.32 33.44 78.0 Not Reported 2.24 SE 2.91 E 3.80 SE No 0.000 No Precipitation 03/20/2019 05:45 AM 03/20/2019 05:50 AM 0.000 0.000 0.000 0.000 0.000 Not Reported Not Reported
03/22/2019 03:14 AM 34.88 32.36 28.58 54.32 33.44 76.0 Not Reported 2.24 SE 2.24 SW 4.25 E No 0.000 No Precipitation 03/20/2019 05:45 AM 03/20/2019 05:50 AM 0.000 0.000 0.000 0.000 0.000 Not Reported Not Reported
03/22/2019 03:19 AM 34.88 32.90 29.84 54.32 33.44 81.0 Not Reported 3.80 S 2.46 SE 4.25 E No 0.000 No Precipitation 03/20/2019 05:45 AM 03/20/2019 05:50 AM 0.000 0.000 0.000 0.000 0.000 Not Reported Not Reported
03/22/2019 03:24 AM 35.42 33.08 29.84 54.32 33.44 79.0 Not Reported 3.80 SE 3.80 SE 4.70 S No 0.000 No Precipitation 03/20/2019 05:45 AM 03/20/2019 05:50 AM 0.000 0.000 0.000 0.000 0.000 Not Reported Not Reported
03/22/2019 03:29 AM 34.70 32.54 29.48 54.32 33.44 80.0 Not Reported 4.03 SE 2.91 SE 4.70 S No 0.000 No Precipitation 03/20/2019 05:45 AM 03/20/2019 05:50 AM 0.000 0.000 0.000 0.000 0.000 Not Reported Not Reported
03/22/2019 03:34 AM 33.26 31.64 28.94 54.32 33.44 83.0 Not Reported 4.03 SE 3.80 SE 4.47 SE No 0.000 No Precipitation 03/20/2019 05:45 AM 03/20/2019 05:50 AM 0.000 0.000 0.000 0.000 0.000 Not Reported Not Reported
03/22/2019 03:39 AM 32.00 30.38 27.50 54.32 33.44 82.0 Not Reported 3.36 SE 1.79 SE 4.47 SE No 0.000 No Precipitation 03/20/2019 05:45 AM 03/20/2019 05:50 AM 0.000 0.000 0.000 0.000 0.000 Not Reported Not Reported
03/22/2019 03:44 AM 32.00 30.56 28.22 54.32 33.44 85.0 Not Reported 3.36 S 3.13 SW 4.25 SE No 0.000 No Precipitation 03/20/2019 05:45 AM 03/20/2019 05:50 AM 0.000 0.000 0.000 0.000 0.000 Not Reported Not Reported
03/22/2019 03:49 AM 32.00 30.56 28.22 54.32 33.44 85.0 Not Reported 4.70 SW 5.59 SW 4.25 SE No 0.000 No Precipitation 03/20/2019 05:45 AM 03/20/2019 05:50 AM 0.000 0.000 0.000 0.000 0.000 Not Reported Not Reported
03/22/2019 03:54 AM 33.08 31.82 29.48 54.32 33.44 85.0 Not Reported 5.37 S 5.37 S 6.04 SW No 0.000 No Precipitation 03/20/2019 05:45 AM 03/20/2019 05:50 AM 0.000 0.000 0.000 0.000 0.000 Not Reported Not Reported
03/22/2019 03:59 AM 35.60 33.26 29.84 54.32 33.44 78.0 Not Reported 6.93 SE 6.49 E 6.04 SW No 0.000 No Precipitation 03/20/2019 05:45 AM 03/20/2019 05:50 AM 0.000 0.000 0.000 0.000 0.000 Not Reported Not Reported
03/22/2019 04:04 AM 34.16 32.18 29.30 54.32 33.44 81.0 Not Reported 4.03 SE 6.49 SE 7.83 E No 0.000 No Precipitation 03/20/2019 05:45 AM 03/20/2019 05:50 AM 0.000 0.000 0.000 0.000 0.000 Not Reported Not Reported
03/22/2019 04:09 AM 35.24 32.72 29.30 54.32 33.44 78.0 Not Reported 8.05 SE 4.70 SW 7.83 E No 0.000 No Precipitation 03/20/2019 05:45 AM 03/20/2019 05:50 AM 0.000 0.000 0.000 0.000 0.000 Not Reported Not Reported
03/22/2019 04:14 AM 34.88 32.72 29.66 54.32 33.44 79.0 Not Reported 1.57 W 0.22 W 9.17 E No 0.000 No Precipitation 03/20/2019 05:45 AM 03/20/2019 05:50 AM 0.000 0.000 0.000 0.000 0.000 Not Reported Not Reported
03/22/2019 04:19 AM 36.14 33.62 30.02 54.32 33.44 77.0 Not Reported 2.01 SE 4.70 SE 9.17 E No 0.000 No Precipitation 03/20/2019 05:45 AM 03/20/2019 05:50 AM 0.000 0.000 0.000 0.000 0.000 Not Reported Not Reported
03/22/2019 04:24 AM 36.68 33.80 29.48 54.32 33.44 74.0 Not Reported 3.80 E 2.91 E 5.82 E No 0.000 No Precipitation 03/20/2019 05:45 AM 03/20/2019 05:50 AM 0.000 0.000 0.000 0.000 0.000 Not Reported Not Reported
03/22/2019 04:29 AM 35.96 33.26 29.30 54.32 33.44 75.0 Not Reported 1.34 SW 3.13 NW 5.82 E No 0.000 No Precipitation 03/20/2019 05:45 AM 03/20/2019 05:50 AM 0.000 0.000 0.000 0.000 0.000 Not Reported Not Reported
03/22/2019 04:34 AM 35.96 33.44 29.48 54.32 33.44 76.0 Not Reported 2.24 SE 3.36 SE 5.14 E No 0.000 No Precipitation 03/20/2019 05:45 AM 03/20/2019 05:50 AM 0.000 0.000 0.000 0.000 0.000 Not Reported Not Reported
03/22/2019 04:39 AM 36.32 33.44 29.30 54.32 33.44 75.0 Not Reported 4.03 SE 2.68 SE 5.14 E No 0.000 No Precipitation 03/20/2019 05:45 AM 03/20/2019 05:50 AM 0.000 0.000 0.000 0.000 0.000 Not Reported Not Reported
03/22/2019 04:44 AM 35.42 32.72 28.94 54.32 33.44 76.0 Not Reported 2.46 S 4.47 SE 5.37 SE No 0.000 No Precipitation 03/20/2019 05:45 AM 03/20/2019 05:50 AM 0.000 0.000 0.000 0.000 0.000 Not Reported Not Reported
03/22/2019 04:49 AM 35.24 32.54 28.40 54.32 33.44 75.0 Not Reported 4.03 SE 4.03 SW 5.37 SE No 0.000 No Precipitation 03/20/2019 05:45 AM 03/20/2019 05:50 AM 0.000 0.000 0.000 0.000 0.000 Not Reported Not Reported
03/22/2019 04:54 AM 34.70 32.18 28.58 54.32 33.44 77.0 Not Reported 1.79 SE 2.46 S 6.71 SE No 0.000 No Precipitation 03/20/2019 05:45 AM 03/20/2019 05:50 AM 0.000 0.000 0.000 0.000 0.000 Not Reported Not Reported
03/22/2019 04:59 AM 34.16 32.00 28.40 54.32 33.44 78.0 Not Reported 2.91 S 2.24 SW 6.71 SE No 0.000 No Precipitation 03/20/2019 05:45 AM 03/20/2019 05:50 AM 0.000 0.000 0.000 0.000 0.000 Not Reported Not Reported
03/22/2019 05:04 AM 34.16 32.00 28.22 54.32 33.44 78.0 Not Reported 3.36 S 2.01 SE 4.70 SW No 0.000 No Precipitation 03/20/2019 05:45 AM 03/20/2019 05:50 AM 0.000 0.000 0.000 0.000 0.000 Not Reported Not Reported
03/22/2019 05:09 AM 35.24 32.54 28.58 54.32 33.44 76.0 Not Reported 3.58 SE 2.91 SE 4.70 SW No 0.000 No Precipitation 03/20/2019 05:45 AM 03/20/2019 05:50 AM 0.000 0.000 0.000 0.000 0.000 Not Reported Not Reported
03/22/2019 05:14 AM 35.24 32.36 28.22 54.32 33.44 74.0 Not Reported 3.58 SE 3.13 SE 4.92 SW No 0.000 No Precipitation 03/20/2019 05:45 AM 03/20/2019 05:50 AM 0.000 0.000 0.000 0.000 0.000 Not Reported Not Reported
03/22/2019 05:19 AM 34.16 31.82 27.86 54.32 33.44 76.0 Not Reported 3.58 S 3.13 S 4.92 SW No 0.000 No Precipitation 03/20/2019 05:45 AM 03/20/2019 05:50 AM 0.000 0.000 0.000 0.000 0.000 Not Reported Not Reported
03/22/2019 05:24 AM 33.98 32.00 28.58 54.32 33.44 79.0 Not Reported 3.80 S 6.71 S 6.04 SE No 0.000 No Precipitation 03/20/2019 05:45 AM 03/20/2019 05:50 AM 0.000 0.000 0.000 0.000 0.000 Not Reported Not Reported
03/22/2019 05:29 AM 33.80 31.82 28.04 54.32 33.44 78.0 Not Reported 4.25 S 4.70 S 6.04 SE No 0.000 No Precipitation 03/20/2019 05:45 AM 03/20/2019 05:50 AM 0.000 0.000 0.000 0.000 0.000 Not Reported Not Reported
03/22/2019 05:34 AM 33.80 31.64 28.04 54.32 33.44 79.0 Not Reported 4.47 S 5.59 S 6.71 S No 0.000 No Precipitation 03/20/2019 05:45 AM 03/20/2019 05:50 AM 0.000 0.000 0.000 0.000 0.000 Not Reported Not Reported
03/22/2019 05:39 AM 33.80 31.82 28.22 54.32 33.44 79.0 Not Reported 5.14 S 4.70 S 6.71 S No 0.000 No Precipitation 03/20/2019 05:45 AM 03/20/2019 05:50 AM 0.000 0.000 0.000 0.000 0.000 Not Reported Not Reported
03/22/2019 05:44 AM 33.80 31.82 28.40 54.32 33.44 79.0 Not Reported 6.04 S 6.49 S 6.49 S No 0.000 No Precipitation 03/20/2019 05:45 AM 03/20/2019 05:50 AM 0.000 0.000 0.000 0.000 0.000 Not Reported Not Reported
03/22/2019 05:49 AM 33.62 31.64 27.86 54.32 33.44 78.0 Not Reported 6.93 S 5.59 S 6.49 S No 0.000 No Precipitation 03/20/2019 05:45 AM 03/20/2019 05:50 AM 0.000 0.000 0.000 0.000 0.000 Not Reported Not Reported
03/22/2019 05:54 AM 34.88 32.36 28.94 54.32 33.44 77.0 Not Reported 5.82 S 7.61 S 7.38 S No 0.000 No Precipitation 03/20/2019 05:45 AM 03/20/2019 05:50 AM 0.000 0.000 0.000 0.000 0.000 Not Reported Not Reported
03/22/2019 05:59 AM 35.06 32.36 28.22 54.32 33.44 75.0 Not Reported 7.83 S 7.16 S 7.38 S No 0.000 No Precipitation 03/20/2019 05:45 AM 03/20/2019 05:50 AM 0.000 0.000 0.000 0.000 0.000 Not Reported Not Reported
03/22/2019 06:04 AM 34.34 32.00 28.40 54.32 33.44 78.0 Not Reported 7.61 S 7.83 S 9.17 S No 0.000 No Precipitation 03/20/2019 05:45 AM 03/20/2019 05:50 AM 0.000 0.000 0.000 0.000 0.000 Not Reported Not Reported
03/22/2019 06:09 AM 33.80 31.64 28.04 54.32 33.44 78.0 Not Reported 6.93 S 7.38 S 9.17 S No 0.000 No Precipitation 03/20/2019 05:45 AM 03/20/2019 05:50 AM 0.000 0.000 0.000 0.000 0.000 Not Reported Not Reported
03/22/2019 06:14 AM 32.90 30.92 27.50 54.32 33.44 79.0 Not Reported 5.82 S 6.04 S 8.28 SE No 0.000 No Precipitation 03/20/2019 05:45 AM 03/20/2019 05:50 AM 0.000 0.000 0.000 0.000 0.000 Not Reported Not Reported
03/22/2019 06:19 AM 33.08 31.28 27.68 54.32 33.44 79.0 Not Reported 5.82 S 5.59 S 8.28 SE No 0.000 No Precipitation 03/20/2019 05:45 AM 03/20/2019 05:50 AM 0.000 0.000 0.000 0.000 0.000 Not Reported Not Reported
03/22/2019 06:24 AM 34.16 31.82 27.86 54.32 33.44 77.0 Not Reported 4.03 S 3.36 SW 6.93 S No 0.000 No Precipitation 03/20/2019 05:45 AM 03/20/2019 05:50 AM 0.000 0.000 0.000 0.000 0.000 Not Reported Not Reported
03/22/2019 06:29 AM 34.34 31.82 27.50 54.32 33.44 75.0 Not Reported 5.14 SE 6.04 SE 6.93 S No 0.000 No Precipitation 03/20/2019 05:45 AM 03/20/2019 05:50 AM 0.000 0.000 0.000 0.000 0.000 Not Reported Not Reported
03/22/2019 06:34 AM 33.26 31.10 27.14 54.32 33.44 77.0 Not Reported 4.70 S 3.80 S 6.49 S No 0.000 No Precipitation 03/20/2019 05:45 AM 03/20/2019 05:50 AM 0.000 0.000 0.000 0.000 0.000 Not Reported Not Reported
03/22/2019 06:39 AM 32.72 30.74 27.32 54.32 33.44 79.0 Not Reported 4.70 SW 2.68 SW 6.49 S No 0.000 No Precipitation 03/20/2019 05:45 AM 03/20/2019 05:50 AM 0.000 0.000 0.000 0.000 0.000 Not Reported Not Reported
03/22/2019 06:44 AM 32.00 30.38 27.32 54.32 33.44 81.0 Not Reported 7.38 SW 7.83 SW 5.82 SE No 0.000 No Precipitation 03/20/2019 05:45 AM 03/20/2019 05:50 AM 0.000 0.000 0.000 0.000 0.000 Not Reported Not Reported
03/22/2019 06:49 AM 32.72 30.92 27.68 54.32 33.44 80.0 Not Reported 6.04 S 5.14 S 5.82 SE No 0.000 No Precipitation 03/20/2019 05:45 AM 03/20/2019 05:50 AM 0.000 0.000 0.000 0.000 0.000 Not Reported Not Reported
03/22/2019 06:54 AM 33.26 31.28 27.68 54.32 33.44 78.0 Not Reported 6.71 S 7.16 S 8.50 S No 0.000 No Precipitation 03/20/2019 05:45 AM 03/20/2019 05:50 AM 0.000 0.000 0.000 0.000 0.000 Not Reported Not Reported
03/22/2019 06:59 AM 32.90 30.92 27.32 54.32 33.44 79.0 Not Reported 6.04 S 7.16 S 8.50 S No 0.000 No Precipitation 03/20/2019 05:45 AM 03/20/2019 05:50 AM 0.000 0.000 0.000 0.000 0.000 Not Reported Not Reported
03/22/2019 07:04 AM 33.26 31.28 27.86 54.32 33.44 79.0 Not Reported 5.82 S 4.92 SE 7.83 SE No 0.000 No Precipitation 03/20/2019 05:45 AM 03/20/2019 05:50 AM 0.000 0.000 0.000 0.000 0.000 Not Reported Not Reported
03/22/2019 07:09 AM 32.90 30.92 27.32 54.32 33.44 79.0 Not Reported 7.38 S 7.16 SE 7.83 SE No 0.000 No Precipitation 03/20/2019 05:45 AM 03/20/2019 05:50 AM 0.000 0.000 0.000 0.000 0.000 Not Reported Not Reported
03/22/2019 07:14 AM 33.44 31.46 27.86 54.32 33.44 79.0 Not Reported 5.59 SE 7.61 S 8.28 S No 0.000 No Precipitation 03/20/2019 05:45 AM 03/20/2019 05:50 AM 0.000 0.000 0.000 0.000 0.000 Not Reported Not Reported
03/22/2019 07:19 AM 33.62 31.46 27.68 54.32 33.44 77.0 Not Reported 6.49 S 6.26 SE 8.28 S No 0.000 No Precipitation 03/20/2019 05:45 AM 03/20/2019 05:50 AM 0.000 0.000 0.000 0.000 0.000 Not Reported Not Reported
03/22/2019 07:24 AM 32.18 30.38 26.96 54.32 33.44 80.0 Not Reported 6.26 S 6.49 SW 8.95 SE No 0.000 No Precipitation 03/20/2019 05:45 AM 03/20/2019 05:50 AM 0.000 0.000 0.000 0.000 0.000 Not Reported Not Reported
03/22/2019 07:29 AM 32.00 30.38 27.14 54.32 33.44 81.0 Not Reported 3.80 SW 7.16 SW 8.95 SE No 0.000 No Precipitation 03/20/2019 05:45 AM 03/20/2019 05:50 AM 0.000 0.000 0.000 0.000 0.000 Not Reported Not Reported
03/22/2019 07:34 AM 32.72 30.74 27.14 54.32 33.44 79.0 Not Reported 6.04 S 6.71 S 7.83 SE No 0.000 No Precipitation 03/20/2019 05:45 AM 03/20/2019 05:50 AM 0.000 0.000 0.000 0.000 0.000 Not Reported Not Reported
03/22/2019 07:39 AM 32.72 30.74 26.96 54.32 33.44 78.0 Not Reported 6.49 SW 5.82 S 7.83 SE No 0.000 No Precipitation 03/20/2019 05:45 AM 03/20/2019 05:50 AM 0.000 0.000 0.000 0.000 0.000 Not Reported Not Reported
03/22/2019 07:44 AM 32.72 30.74 26.96 54.32 33.44 78.0 Not Reported 4.92 S 6.04 S 8.72 S No 0.000 No Precipitation 03/20/2019 05:45 AM 03/20/2019 05:50 AM 0.000 0.000 0.000 0.000 0.000 Not Reported Not Reported
03/22/2019 07:49 AM 32.54 30.56 26.96 54.32 33.44 78.0 Not Reported 4.92 SW 3.80 S 8.72 S No 0.000 No Precipitation 03/20/2019 05:45 AM 03/20/2019 05:50 AM 0.000 0.000 0.000 0.000 0.000 Not Reported Not Reported
03/22/2019 07:54 AM 33.44 31.28 27.32 54.32 33.44 77.0 Not Reported 4.70 SE 8.05 SE 7.38 SW No 0.000 No Precipitation 03/20/2019 05:45 AM 03/20/2019 05:50 AM 0.000 0.000 0.000 0.000 0.000 Not Reported Not Reported
03/22/2019 07:59 AM 33.62 31.28 27.14 54.32 33.44 76.0 Not Reported 5.14 S 7.61 S 7.38 SW No 0.000 No Precipitation 03/20/2019 05:45 AM 03/20/2019 05:50 AM 0.000 0.000 0.000 0.000 0.000 Not Reported Not Reported
03/22/2019 08:04 AM 32.00 29.84 25.70 54.32 33.44 76.0 Not Reported 4.70 SW 4.25 SW 8.05 SE No 0.000 No Precipitation 03/20/2019 05:45 AM 03/20/2019 05:50 AM 0.000 0.000 0.000 0.000 0.000 Not Reported Not Reported
03/22/2019 08:09 AM 32.90 30.74 26.96 54.32 33.44 77.0 Not Reported 4.70 S 4.47 S 8.05 SE No 0.000 No Precipitation 03/20/2019 05:45 AM 03/20/2019 05:50 AM 0.000 0.000 0.000 0.000 0.000 Not Reported Not Reported
03/22/2019 08:14 AM 33.08 30.56 26.42 54.32 33.44 76.0 Not Reported 5.37 SW 4.47 SW 5.37 S No 0.000 No Precipitation 03/20/2019 05:45 AM 03/20/2019 05:50 AM 0.000 0.000 0.000 0.000 0.000 Not Reported Not Reported
03/22/2019 08:19 AM 34.34 32.00 27.68 54.32 33.44 75.0 Not Reported 4.25 S 5.82 SE 5.37 S No 0.000 No Precipitation 03/20/2019 05:45 AM 03/20/2019 05:50 AM 0.000 0.000 0.000 0.000 0.000 Not Reported Not Reported
03/22/2019 08:24 AM 34.34 31.64 26.96 54.32 33.44 73.0 Not Reported 4.25 SW 3.36 S 6.93 SE No 0.000 No Precipitation 03/20/2019 05:45 AM 03/20/2019 05:50 AM 0.000 0.000 0.000 0.000 0.000 Not Reported Not Reported
03/22/2019 08:29 AM 34.70 32.00 27.68 54.32 33.44 74.0 Not Reported 4.70 S 8.50 S 6.93 SE No 0.000 No Precipitation 03/20/2019 05:45 AM 03/20/2019 05:50 AM 0.000 0.000 0.000 0.000 0.000 Not Reported Not Reported
03/22/2019 08:34 AM 36.32 33.08 28.22 54.32 33.44 71.0 Not Reported 7.61 S 8.28 SW 8.50 S No 0.000 No Precipitation 03/20/2019 05:45 AM 03/20/2019 05:50 AM 0.000 0.000 0.000 0.000 0.000 Not Reported Not Reported
03/22/2019 08:39 AM 36.68 33.26 28.04 54.32 33.44 69.0 Not Reported 7.16 SW 5.59 SE 8.50 S No 0.000 No Precipitation 03/20/2019 05:45 AM 03/20/2019 05:50 AM 0.000 0.000 0.000 0.000 0.000 Not Reported Not Reported
03/22/2019 08:44 AM 36.32 33.26 28.40 54.32 33.44 72.0 Not Reported 6.26 S 5.37 S 11.18 SE No 0.000 No Precipitation 03/20/2019 05:45 AM 03/20/2019 05:50 AM 0.000 0.000 0.000 0.000 0.000 Not Reported Not Reported
03/22/2019 08:49 AM 36.68 33.44 28.76 54.32 33.44 72.0 Not Reported 6.26 S 3.58 S 11.18 SE No 0.000 No Precipitation 03/20/2019 05:45 AM 03/20/2019 05:50 AM 0.000 0.000 0.000 0.000 0.000 Not Reported Not Reported
03/22/2019 08:54 AM 36.68 33.26 28.22 54.32 33.44 70.0 Not Reported 4.70 S 5.37 S 8.28 S No 0.000 No Precipitation 03/20/2019 05:45 AM 03/20/2019 05:50 AM 0.000 0.000 0.000 0.000 0.000 Not Reported Not Reported
03/22/2019 08:59 AM 36.14 33.08 28.40 54.32 33.44 72.0 Not Reported 5.59 SW 5.37 S 8.28 S No 0.000 No Precipitation 03/20/2019 05:45 AM 03/20/2019 05:50 AM 0.000 0.000 0.000 0.000 0.000 Not Reported Not Reported
03/22/2019 09:04 AM 35.96 33.08 28.76 54.32 33.44 74.0 Not Reported 4.70 SE 6.93 SE 6.49 SE No 0.000 No Precipitation 03/20/2019 05:45 AM 03/20/2019 05:50 AM 0.000 0.000 0.000 0.000 0.000 Not Reported Not Reported
03/22/2019 09:09 AM 36.86 33.62 28.76 54.32 33.44 72.0 Not Reported 7.61 SE 4.70 S 6.49 SE No 0.000 No Precipitation 03/20/2019 05:45 AM 03/20/2019 05:50 AM 0.000 0.000 0.000 0.000 0.000 Not Reported Not Reported
03/22/2019 09:14 AM 36.14 33.26 28.76 54.32 33.44 73.0 Not Reported 6.71 SW 7.16 S 9.84 SE No 0.000 No Precipitation 03/20/2019 05:45 AM 03/20/2019 05:50 AM 0.000 0.000 0.000 0.000 0.000 Not Reported Not Reported
03/22/2019 09:19 AM 36.32 33.44 28.94 54.32 33.44 74.0 Not Reported 7.61 S 6.93 SW 9.84 SE No 0.000 No Precipitation 03/20/2019 05:45 AM 03/20/2019 05:50 AM 0.000 0.000 0.000 0.000 0.000 Not Reported Not Reported
03/22/2019 09:24 AM 36.14 33.26 28.94 54.32 33.44 73.0 Not Reported 8.50 S 7.61 S 8.50 S No 0.000 No Precipitation 03/20/2019 05:45 AM 03/20/2019 05:50 AM 0.000 0.000 0.000 0.000 0.000 Not Reported Not Reported
03/22/2019 09:29 AM 36.68 33.44 28.40 54.32 33.44 72.0 Not Reported 7.61 S 7.16 S 8.50 S No 0.000 No Precipitation 03/20/2019 05:45 AM 03/20/2019 05:50 AM 0.000 0.000 0.000 0.000 0.000 Not Reported Not Reported
03/22/2019 09:34 AM 36.50 33.80 29.48 54.32 33.44 74.0 Not Reported 6.04 SE 6.71 S 8.95 SW No 0.000 No Precipitation 03/20/2019 05:45 AM 03/20/2019 05:50 AM 0.000 0.000 0.000 0.000 0.000 Not Reported Not Reported
03/22/2019 09:39 AM 38.84 35.42 30.56 54.32 33.44 71.0 Not Reported 6.71 SE 7.16 SE 8.95 SW No 0.000 No Precipitation 03/20/2019 05:45 AM 03/20/2019 05:50 AM 0.000 0.000 0.000 0.000 0.000 Not Reported Not Reported
03/22/2019 09:44 AM 39.38 35.78 30.74 54.32 33.44 70.0 Not Reported 6.93 S 6.49 SE 9.40 S No 0.000 No Precipitation 03/20/2019 05:45 AM 03/20/2019 05:50 AM 0.000 0.000 0.000 0.000 0.000 Not Reported Not Reported
03/22/2019 09:49 AM 39.56 36.14 31.28 54.32 33.44 71.0 Not Reported 7.16 S 8.05 S 9.40 S No 0.000 No Precipitation 03/20/2019 05:45 AM 03/20/2019 05:50 AM 0.000 0.000 0.000 0.000 0.000 Not Reported Not Reported
03/22/2019 09:54 AM 40.10 36.14 30.74 54.32 33.44 68.0 Not Reported 6.49 S 5.37 S 9.40 SE No 0.000 No Precipitation 03/20/2019 05:45 AM 03/20/2019 05:50 AM 0.000 0.000 0.000 0.000 0.000 Not Reported Not Reported
03/22/2019 09:59 AM 40.64 36.14 30.02 54.32 33.44 65.0 Not Reported 6.49 SE 2.68 SW 9.40 SE No 0.000 No Precipitation 03/20/2019 05:45 AM 03/20/2019 05:50 AM 0.000 0.000 0.000 0.000 0.000 Not Reported Not Reported
03/22/2019 10:04 AM 40.82 36.32 29.84 54.32 33.44 63.0 Not Reported 5.82 S 4.70 SE 7.38 SE No 0.000 No Precipitation 03/20/2019 05:45 AM 03/20/2019 05:50 AM 0.000 0.000 0.000 0.000 0.000 Not Reported Not Reported
03/22/2019 10:09 AM 41.18 36.32 28.22 54.32 33.44 60.0 Not Reported 4.70 SE 4.92 SE 7.38 SE No 0.000 No Precipitation 03/20/2019 05:45 AM 03/20/2019 05:50 AM 0.000 0.000 0.000 0.000 0.000 Not Reported Not Reported
03/22/2019 10:14 AM 42.26 36.50 28.22 54.32 33.44 56.0 Not Reported 7.16 SE 8.72 SE 7.61 SE No 0.000 No Precipitation 03/20/2019 05:45 AM 03/20/2019 05:50 AM 0.000 0.000 0.000 0.000 0.000 Not Reported Not Reported
03/22/2019 10:19 AM 42.44 36.50 28.76 54.32 33.44 54.0 Not Reported 8.95 SE 10.07 SE 7.61 SE No 0.000 No Precipitation 03/20/2019 05:45 AM 03/20/2019 05:50 AM 0.000 0.000 0.000 0.000 0.000 Not Reported Not Reported
03/22/2019 10:24 AM 42.62 36.32 27.14 54.32 33.44 53.0 Not Reported 8.95 SE 6.49 SE 10.07 SE No 0.000 No Precipitation 03/20/2019 05:45 AM 03/20/2019 05:50 AM 0.000 0.000 0.000 0.000 0.000 Not Reported Not Reported
03/22/2019 10:29 AM 43.16 36.86 27.86 54.32 33.44 54.0 Not Reported 8.28 E 7.38 SE 10.07 SE No 0.000 No Precipitation 03/20/2019 05:45 AM 03/20/2019 05:50 AM 0.000 0.000 0.000 0.000 0.000 Not Reported Not Reported
03/22/2019 10:34 AM 43.16 36.32 25.88 54.32 33.44 49.0 Not Reported 7.83 E 8.72 SE 10.74 SE No 0.000 No Precipitation 03/20/2019 05:45 AM 03/20/2019 05:50 AM 0.000 0.000 0.000 0.000 0.000 Not Reported Not Reported
03/22/2019 10:39 AM 44.42 37.76 28.04 54.32 33.44 51.0 Not Reported 7.61 E 8.28 E 10.74 SE No 0.000 No Precipitation 03/20/2019 05:45 AM 03/20/2019 05:50 AM 0.000 0.000 0.000 0.000 0.000 Not Reported Not Reported
03/22/2019 10:44 AM 44.24 37.40 27.32 54.32 33.44 50.0 Not Reported 11.86 E 11.86 E 9.62 E No 0.000 No Precipitation 03/20/2019 05:45 AM 03/20/2019 05:50 AM 0.000 0.000 0.000 0.000 0.000 Not Reported Not Reported
03/22/2019 10:49 AM 44.06 37.04 26.42 54.32 33.44 49.0 Not Reported 11.41 E 12.53 E 9.62 E No 0.000 No Precipitation 03/20/2019 05:45 AM 03/20/2019 05:50 AM 0.000 0.000 0.000 0.000 0.000 Not Reported Not Reported
03/22/2019 10:54 AM 44.42 37.04 25.70 54.32 33.44 47.0 Not Reported 9.17 E 10.29 E 13.20 E No 0.000 No Precipitation 03/20/2019 05:45 AM 03/20/2019 05:50 AM 0.000 0.000 0.000 0.000 0.000 Not Reported Not Reported
03/22/2019 10:59 AM 45.14 36.68 23.54 54.32 33.44 41.0 Not Reported 6.26 E 4.92 E 13.20 E No 0.000 No Precipitation 03/20/2019 05:45 AM 03/20/2019 05:50 AM 0.000 0.000 0.000 0.000 0.000 Not Reported Not Reported
03/22/2019 11:04 AM 45.32 36.86 23.36 54.32 33.44 41.0 Not Reported 4.47 SE 5.37 NE 12.75 E No 0.000 No Precipitation 03/20/2019 05:45 AM 03/20/2019 05:50 AM 0.000 0.000 0.000 0.000 0.000 Not Reported Not Reported
03/22/2019 11:09 AM 45.68 37.40 24.62 54.32 33.44 42.0 Not Reported 4.47 NE 6.04 NE 12.75 E No 0.000 No Precipitation 03/20/2019 05:45 AM 03/20/2019 05:50 AM 0.000 0.000 0.000 0.000 0.000 Not Reported Not Reported
03/22/2019 11:14 AM 45.68 37.76 25.88 54.32 33.44 45.0 Not Reported 5.59 E 7.38 E 6.49 E No 0.000 No Precipitation 03/20/2019 05:45 AM 03/20/2019 05:50 AM 0.000 0.000 0.000 0.000 0.000 Not Reported Not Reported
03/22/2019 11:19 AM 46.04 37.40 23.54 54.32 33.44 40.0 Not Reported 3.80 E 1.57 E 6.49 E No 0.000 No Precipitation 03/20/2019 05:45 AM 03/20/2019 05:50 AM 0.000 0.000 0.000 0.000 0.000 Not Reported Not Reported
03/22/2019 11:24 AM 46.76 37.58 23.18 54.32 33.44 38.0 Not Reported 1.79 S 3.80 S 8.28 E No 0.000 No Precipitation 03/20/2019 05:45 AM 03/20/2019 05:50 AM 0.000 0.000 0.000 0.000 0.000 Not Reported Not Reported
03/22/2019 11:29 AM 46.94 37.40 22.46 54.32 33.44 37.0 Not Reported 4.47 S 4.03 SW 8.28 E No 0.000 No Precipitation 03/20/2019 05:45 AM 03/20/2019 05:50 AM 0.000 0.000 0.000 0.000 0.000 Not Reported Not Reported
03/22/2019 11:34 AM 46.22 36.86 21.56 54.32 33.44 36.0 Not Reported 8.05 NW 4.25 W 5.59 S No 0.000 No Precipitation 03/20/2019 05:45 AM 03/20/2019 05:50 AM 0.000 0.000 0.000 0.000 0.000 Not Reported Not Reported
03/22/2019 11:39 AM 46.58 36.68 20.30 54.32 33.44 34.0 Not Reported 9.40 W 4.92 SW 5.59 S No 0.000 No Precipitation 03/20/2019 05:45 AM 03/20/2019 05:50 AM 0.000 0.000 0.000 0.000 0.000 Not Reported Not Reported
03/22/2019 11:44 AM 47.30 37.40 21.02 54.32 33.44 34.0 Not Reported 1.79 SW 2.24 N 11.86 NW No 0.000 No Precipitation 03/20/2019 05:45 AM 03/20/2019 05:50 AM 0.000 0.000 0.000 0.000 0.000 Not Reported Not Reported
03/22/2019 11:49 AM 46.94 36.68 19.40 54.32 33.44 32.0 Not Reported 5.37 N 5.37 N 11.86 NW No 0.000 No Precipitation 03/20/2019 05:45 AM 03/20/2019 05:50 AM 0.000 0.000 0.000 0.000 0.000 Not Reported Not Reported
03/22/2019 11:54 AM 46.76 37.04 21.20 54.32 33.44 35.0 Not Reported 1.57 E 4.47 SE 9.17 N No 0.000 No Precipitation 03/20/2019 05:45 AM 03/20/2019 05:50 AM 0.000 0.000 0.000 0.000 0.000 Not Reported Not Reported
03/22/2019 11:59 AM 46.58 36.14 19.58 54.32 33.44 32.0 Not Reported 5.82 S 7.16 S 9.17 N No 0.000 No Precipitation 03/20/2019 05:45 AM 03/20/2019 05:50 AM 0.000 0.000 0.000 0.000 0.000 Not Reported Not Reported
03/22/2019 12:04 PM 46.58 36.14 18.32 54.32 33.44 31.0 Not Reported 4.70 SE 1.79 E 10.74 S No 0.000 No Precipitation 03/20/2019 05:45 AM 03/20/2019 05:50 AM 0.000 0.000 0.000 0.000 0.000 Not Reported Not Reported
03/22/2019 12:09 PM 46.94 37.58 22.82 54.32 33.44 37.0 Not Reported 3.13 SE 6.93 SW 10.74 S No 0.000 No Precipitation 03/20/2019 05:45 AM 03/20/2019 05:50 AM 0.000 0.000 0.000 0.000 0.000 Not Reported Not Reported
03/22/2019 12:14 PM 46.94 36.86 19.94 54.32 33.44 33.0 Not Reported 8.72 S 7.83 S 8.72 SW No 0.000 No Precipitation 03/20/2019 05:45 AM 03/20/2019 05:50 AM 0.000 0.000 0.000 0.000 0.000 Not Reported Not Reported
03/22/2019 12:19 PM 46.76 37.04 21.02 54.32 33.44 35.0 Not Reported 14.09 SW 16.78 W 8.72 SW No 0.000 No Precipitation 03/20/2019 05:45 AM 03/20/2019 05:50 AM 0.000 0.000 0.000 0.000 0.000 Not Reported Not Reported
03/22/2019 12:24 PM 46.40 36.86 21.20 54.32 33.44 36.0 Not Reported 17.67 W 12.08 W 17.00 SW No 0.000 No Precipitation 03/20/2019 05:45 AM 03/20/2019 05:50 AM 0.000 0.000 0.000 0.000 0.000 Not Reported Not Reported
03/22/2019 12:29 PM 46.76 37.22 20.48 54.32 33.44 34.0 Not Reported 11.86 W 10.51 W 17.00 SW No 0.000 No Precipitation 03/20/2019 05:45 AM 03/20/2019 05:50 AM 0.000 0.000 0.000 0.000 0.000 Not Reported Not Reported
03/22/2019 12:34 PM 47.12 37.76 23.18 54.32 33.44 38.0 Not Reported 10.29 SW 7.83 S 21.47 W No 0.000 No Precipitation 03/20/2019 05:45 AM 03/20/2019 05:50 AM 0.000 0.000 0.000 0.000 0.000 Not Reported Not Reported
03/22/2019 12:39 PM 46.58 37.76 24.08 54.32 33.44 40.0 Not Reported 9.84 S 8.50 S 21.47 W No 0.000 No Precipitation 03/20/2019 05:45 AM 03/20/2019 05:50 AM 0.000 0.000 0.000 0.000 0.000 Not Reported Not Reported
03/22/2019 12:44 PM 46.76 37.22 21.74 54.32 33.44 36.0 Not Reported 5.37 E 7.38 E 15.21 SW No 0.000 No Precipitation 03/20/2019 05:45 AM 03/20/2019 05:50 AM 0.000 0.000 0.000 0.000 0.000 Not Reported Not Reported
03/22/2019 12:49 PM 46.94 36.86 20.12 54.32 33.44 34.0 Not Reported 3.80 E 3.58 E 15.21 SW No 0.000 No Precipitation 03/20/2019 05:45 AM 03/20/2019 05:50 AM 0.000 0.000 0.000 0.000 0.000 Not Reported Not Reported
03/22/2019 12:54 PM 46.76 36.86 20.30 54.32 33.44 34.0 Not Reported 3.36 SE 4.03 E 7.83 SE No 0.000 No Precipitation 03/20/2019 05:45 AM 03/20/2019 05:50 AM 0.000 0.000 0.000 0.000 0.000 Not Reported Not Reported
03/22/2019 12:59 PM 46.94 37.22 21.02 54.32 33.44 35.0 Not Reported 6.04 SE 5.37 SE 7.83 SE No 0.000 No Precipitation 03/20/2019 05:45 AM 03/20/2019 05:50 AM 0.000 0.000 0.000 0.000 0.000 Not Reported Not Reported
03/22/2019 01:04 PM 46.58 37.04 21.20 54.32 33.44 35.0 Not Reported 10.29 S 7.61 S 8.05 SE No 0.000 No Precipitation 03/20/2019 05:45 AM 03/20/2019 05:50 AM 0.000 0.000 0.000 0.000 0.000 Not Reported Not Reported
03/22/2019 01:09 PM 46.58 36.50 19.04 54.32 33.44 32.0 Not Reported 8.05 S 10.51 S 8.05 SE No 0.000 No Precipitation 03/20/2019 05:45 AM 03/20/2019 05:50 AM 0.000 0.000 0.000 0.000 0.000 Not Reported Not Reported
03/22/2019 01:14 PM 46.04 36.50 20.48 54.32 33.44 35.0 Not Reported 7.83 S 6.26 S 12.75 S No 0.000 No Precipitation 03/20/2019 05:45 AM 03/20/2019 05:50 AM 0.000 0.000 0.000 0.000 0.000 Not Reported Not Reported
03/22/2019 01:19 PM 46.40 36.86 21.20 54.32 33.44 36.0 Not Reported 7.16 S 13.42 S 12.75 S No 0.000 No Precipitation 03/20/2019 05:45 AM 03/20/2019 05:50 AM 0.000 0.000 0.000 0.000 0.000 Not Reported Not Reported
03/22/2019 01:24 PM 46.58 36.68 20.48 54.32 33.44 34.0 Not Reported 3.58 S 2.24 S 13.42 S No 0.000 No Precipitation 03/20/2019 05:45 AM 03/20/2019 05:50 AM 0.000 0.000 0.000 0.000 0.000 Not Reported Not Reported
03/22/2019 01:29 PM 46.58 36.86 20.30 54.32 33.44 34.0 Not Reported 7.38 S 9.17 SE 13.42 S No 0.000 No Precipitation 03/20/2019 05:45 AM 03/20/2019 05:50 AM 0.000 0.000 0.000 0.000 0.000 Not Reported Not Reported
03/22/2019 01:34 PM 46.58 36.68 20.12 54.32 33.44 34.0 Not Reported 4.03 E 8.72 SE 10.07 SW No 0.000 No Precipitation 03/20/2019 05:45 AM 03/20/2019 05:50 AM 0.000 0.000 0.000 0.000 0.000 Not Reported Not Reported
03/22/2019 01:39 PM 46.40 36.50 19.94 54.32 33.44 34.0 Not Reported 8.95 SE 7.16 E 10.07 SW No 0.000 No Precipitation 03/20/2019 05:45 AM 03/20/2019 05:50 AM 0.000 0.000 0.000 0.000 0.000 Not Reported Not Reported
03/22/2019 01:44 PM 46.22 36.68 20.48 54.32 33.44 35.0 Not Reported 6.71 S 0.67 E 14.09 SE No 0.000 No Precipitation 03/20/2019 05:45 AM 03/20/2019 05:50 AM 0.000 0.000 0.000 0.000 0.000 Not Reported Not Reported
03/22/2019 01:49 PM 46.76 37.04 21.20 54.32 33.44 35.0 Not Reported 4.92 S 6.04 SE 14.09 SE No 0.000 No Precipitation 03/20/2019 05:45 AM 03/20/2019 05:50 AM 0.000 0.000 0.000 0.000 0.000 Not Reported Not Reported
03/22/2019 01:54 PM 46.94 37.58 22.64 54.32 33.44 37.0 Not Reported 3.13 S 2.46 S 8.95 S No 0.000 No Precipitation 03/20/2019 05:45 AM 03/20/2019 05:50 AM 0.000 0.000 0.000 0.000 0.000 Not Reported Not Reported
03/22/2019 01:59 PM 47.30 37.04 19.94 54.32 33.44 33.0 Not Reported 1.57 S 2.91 SE 8.95 S No 0.000 No Precipitation 03/20/2019 05:45 AM 03/20/2019 05:50 AM 0.000 0.000 0.000 0.000 0.000 Not Reported Not Reported
03/22/2019 02:04 PM 46.94 37.22 21.56 54.32 33.44 35.0 Not Reported 4.03 S 5.59 S 5.14 S No 0.000 No Precipitation 03/20/2019 05:45 AM 03/20/2019 05:50 AM 0.000 0.000 0.000 0.000 0.000 Not Reported Not Reported
03/22/2019 02:09 PM 47.12 37.58 22.10 54.32 33.44 36.0 Not Reported 5.82 S 5.37 S 5.14 S No 0.000 No Precipitation 03/20/2019 05:45 AM 03/20/2019 05:50 AM 0.000 0.000 0.000 0.000 0.000 Not Reported Not Reported
03/22/2019 02:14 PM 47.30 37.76 22.82 54.32 33.44 37.0 Not Reported 5.59 S 5.14 S 6.26 S No 0.000 No Precipitation 03/20/2019 05:45 AM 03/20/2019 05:50 AM 0.000 0.000 0.000 0.000 0.000 Not Reported Not Reported
03/22/2019 02:19 PM 47.12 38.12 24.26 54.32 33.44 40.0 Not Reported 5.82 S 4.03 S 6.26 S No 0.000 No Precipitation 03/20/2019 05:45 AM 03/20/2019 05:50 AM 0.000 0.000 0.000 0.000 0.000 Not Reported Not Reported
03/22/2019 02:24 PM 47.12 37.94 23.54 54.32 33.44 38.0 Not Reported 6.49 S 5.37 SE 7.61 S No 0.000 No Precipitation 03/20/2019 05:45 AM 03/20/2019 05:50 AM 0.000 0.000 0.000 0.000 0.000 Not Reported Not Reported
03/22/2019 02:29 PM 47.66 38.30 23.90 54.32 33.44 38.0 Not Reported 3.80 SE 2.91 E 7.61 S No 0.000 No Precipitation 03/20/2019 05:45 AM 03/20/2019 05:50 AM 0.000 0.000 0.000 0.000 0.000 Not Reported Not Reported
03/22/2019 02:34 PM 47.48 38.12 23.90 54.32 33.44 38.0 Not Reported 3.80 E 2.68 SE 6.71 S No 0.000 No Precipitation 03/20/2019 05:45 AM 03/20/2019 05:50 AM 0.000 0.000 0.000 0.000 0.000 Not Reported Not Reported
03/22/2019 02:39 PM 48.38 39.20 26.06 54.32 33.44 41.0 Not Reported 1.57 E 5.37 W 6.71 S No 0.000 No Precipitation 03/20/2019 05:45 AM 03/20/2019 05:50 AM 0.000 0.000 0.000 0.000 0.000 Not Reported Not Reported
03/22/2019 02:44 PM 48.38 39.02 25.16 54.32 33.44 39.0 Not Reported 1.34 S 0.00 SE 5.37 W No 0.000 No Precipitation 03/20/2019 05:45 AM 03/20/2019 05:50 AM 0.000 0.000 0.000 0.000 0.000 Not Reported Not Reported
03/22/2019 02:49 PM 48.92 39.38 25.70 54.32 33.44 39.0 Not Reported 1.79 E 3.58 E 5.37 W No 0.000 No Precipitation 03/20/2019 05:45 AM 03/20/2019 05:50 AM 0.000 0.000 0.000 0.000 0.000 Not Reported Not Reported
03/22/2019 02:54 PM 48.20 38.66 24.08 54.32 33.44 38.0 Not Reported 2.68 E 1.34 SW 6.49 E No 0.000 No Precipitation 03/20/2019 05:45 AM 03/20/2019 05:50 AM 0.000 0.000 0.000 0.000 0.000 Not Reported Not Reported
03/22/2019 02:59 PM 48.56 39.20 25.34 54.32 33.44 39.0 Not Reported 4.70 E 4.47 E 6.49 E No 0.000 No Precipitation 03/20/2019 05:45 AM 03/20/2019 05:50 AM 0.000 0.000 0.000 0.000 0.000 Not Reported Not Reported
03/22/2019 03:04 PM 49.28 39.56 25.34 54.32 33.44 38.0 Not Reported 0.00 NE 0.22 NW 8.72 E No 0.000 No Precipitation 03/20/2019 05:45 AM 03/20/2019 05:50 AM 0.000 0.000 0.000 0.000 0.000 Not Reported Not Reported
03/22/2019 03:09 PM 48.92 39.20 24.62 54.32 33.44 37.0 Not Reported 3.13 E 2.91 NE 8.72 E No 0.000 No Precipitation 03/20/2019 05:45 AM 03/20/2019 05:50 AM 0.000 0.000 0.000 0.000 0.000 Not Reported Not Reported
03/22/2019 03:14 PM 48.74 39.20 25.34 54.32 33.44 39.0 Not Reported 4.03 NE 2.01 NE 4.25 E No 0.000 No Precipitation 03/20/2019 05:45 AM 03/20/2019 05:50 AM 0.000 0.000 0.000 0.000 0.000 Not Reported Not Reported
03/22/2019 03:19 PM 49.10 39.20 24.80 54.32 33.44 38.0 Not Reported 5.82 E 4.70 E 4.25 E No 0.000 No Precipitation 03/20/2019 05:45 AM 03/20/2019 05:50 AM 0.000 0.000 0.000 0.000 0.000 Not Reported Not Reported
03/22/2019 03:24 PM 49.10 39.92 27.14 54.32 33.44 41.0 Not Reported 8.72 SE 7.83 SE 6.93 E No 0.000 No Precipitation 03/20/2019 05:45 AM 03/20/2019 05:50 AM 0.000 0.000 0.000 0.000 0.000 Not Reported Not Reported
03/22/2019 03:29 PM 49.10 39.74 26.42 54.32 33.44 40.0 Not Reported 5.82 S 0.89 SW 6.93 E No 0.000 No Precipitation 03/20/2019 05:45 AM 03/20/2019 05:50 AM 0.000 0.000 0.000 0.000 0.000 Not Reported Not Reported
03/22/2019 03:34 PM 49.64 40.10 26.42 54.32 33.44 39.0 Not Reported 2.46 NE 2.46 NE 10.07 E No 0.000 No Precipitation 03/20/2019 05:45 AM 03/20/2019 05:50 AM 0.000 0.000 0.000 0.000 0.000 Not Reported Not Reported
03/22/2019 03:39 PM 49.82 40.46 27.68 54.32 33.44 41.0 Not Reported 2.24 S 6.26 S 10.07 E No 0.000 No Precipitation 03/20/2019 05:45 AM 03/20/2019 05:50 AM 0.000 0.000 0.000 0.000 0.000 Not Reported Not Reported
03/22/2019 03:44 PM 50.00 41.00 28.58 54.32 33.44 43.0 Not Reported 7.16 SW 4.70 SW 6.26 S No 0.000 No Precipitation 03/20/2019 05:45 AM 03/20/2019 05:50 AM 0.000 0.000 0.000 0.000 0.000 Not Reported Not Reported
03/22/2019 03:49 PM 50.18 40.82 27.86 54.32 33.44 41.0 Not Reported 4.92 SW 4.25 SW 6.26 S No 0.000 No Precipitation 03/20/2019 05:45 AM 03/20/2019 05:50 AM 0.000 0.000 0.000 0.000 0.000 Not Reported Not Reported
03/22/2019 03:54 PM 50.36 41.00 28.40 54.32 33.44 42.0 Not Reported 0.89 NW 0.00 NW 8.72 S No 0.000 No Precipitation 03/20/2019 05:45 AM 03/20/2019 05:50 AM 0.000 0.000 0.000 0.000 0.000 Not Reported Not Reported
03/22/2019 03:59 PM 50.36 40.64 26.96 54.32 33.44 39.0 Not Reported 5.14 S 0.45 E 8.72 S No 0.000 No Precipitation 03/20/2019 05:45 AM 03/20/2019 05:50 AM 0.000 0.000 0.000 0.000 0.000 Not Reported Not Reported
03/22/2019 04:04 PM 51.08 41.36 28.04 54.32 33.44 40.0 Not Reported 1.34 S 5.14 SW 6.93 SW No 0.000 No Precipitation 03/20/2019 05:45 AM 03/20/2019 05:50 AM 0.000 0.000 0.000 0.000 0.000 Not Reported Not Reported
03/22/2019 04:09 PM 50.72 41.18 28.22 54.32 33.44 41.0 Not Reported 2.68 S 6.93 W 6.93 SW No 0.000 No Precipitation 03/20/2019 05:45 AM 03/20/2019 05:50 AM 0.000 0.000 0.000 0.000 0.000 Not Reported Not Reported
03/22/2019 04:14 PM 50.00 41.00 29.12 54.32 33.44 44.0 Not Reported 8.05 W 19.01 W 8.72 W No 0.000 No Precipitation 03/20/2019 05:45 AM 03/20/2019 05:50 AM 0.000 0.000 0.000 0.000 0.000 Not Reported Not Reported
03/22/2019 04:19 PM 49.64 40.64 28.40 54.32 33.44 43.0 Not Reported 8.95 W 10.96 W 8.72 W No 0.000 No Precipitation 03/20/2019 05:45 AM 03/20/2019 05:50 AM 0.000 0.000 0.000 0.000 0.000 Not Reported Not Reported
03/22/2019 04:24 PM 49.10 41.00 30.38 54.32 33.44 47.0 Not Reported 11.86 W 10.74 SW 19.01 W No 0.000 No Precipitation 03/20/2019 05:45 AM 03/20/2019 05:50 AM 0.000 0.000 0.000 0.000 0.000 Not Reported Not Reported
03/22/2019 04:29 PM 49.28 41.00 30.38 54.32 33.44 47.0 Not Reported 6.26 W 8.28 SW 19.01 W No 0.000 No Precipitation 03/20/2019 05:45 AM 03/20/2019 05:50 AM 0.000 0.000 0.000 0.000 0.000 Not Reported Not Reported
03/22/2019 04:34 PM 50.00 41.00 28.94 54.32 33.44 43.0 Not Reported 9.84 SW 8.95 SW 14.09 W No 0.000 No Precipitation 03/20/2019 05:45 AM 03/20/2019 05:50 AM 0.000 0.000 0.000 0.000 0.000 Not Reported Not Reported
03/22/2019 04:39 PM 50.00 41.18 29.84 54.32 33.44 45.0 Not Reported 5.82 SW 2.68 W 14.09 W No 0.000 No Precipitation 03/20/2019 05:45 AM 03/20/2019 05:50 AM 0.000 0.000 0.000 0.000 0.000 Not Reported Not Reported
03/22/2019 04:44 PM 50.18 41.36 29.66 54.32 33.44 44.0 Not Reported 5.59 W 6.71 W 11.18 SW No 0.000 No Precipitation 03/20/2019 05:45 AM 03/20/2019 05:50 AM 0.000 0.000 0.000 0.000 0.000 Not Reported Not Reported
03/22/2019 04:49 PM 49.82 41.36 30.02 54.32 33.44 45.0 Not Reported 7.16 SW 10.74 SW 11.18 SW No 0.000 No Precipitation 03/20/2019 05:45 AM 03/20/2019 05:50 AM 0.000 0.000 0.000 0.000 0.000 Not Reported Not Reported
03/22/2019 04:54 PM 50.18 41.72 30.74 54.32 33.44 46.0 Not Reported 2.68 SW 3.36 W 11.41 SW No 0.000 No Precipitation 03/20/2019 05:45 AM 03/20/2019 05:50 AM 0.000 0.000 0.000 0.000 0.000 Not Reported Not Reported
03/22/2019 04:59 PM 50.36 41.18 28.94 54.32 33.44 43.0 Not Reported 0.22 SW 2.91 W 11.41 SW No 0.000 No Precipitation 03/20/2019 05:45 AM 03/20/2019 05:50 AM 0.000 0.000 0.000 0.000 0.000 Not Reported Not Reported
03/22/2019 05:04 PM 50.54 41.54 29.84 54.32 33.44 44.0 Not Reported 0.22 W 0.22 E 11.41 SW No 0.000 No Precipitation 03/20/2019 05:45 AM 03/20/2019 05:50 AM 0.000 0.000 0.000 0.000 0.000 Not Reported Not Reported
03/22/2019 05:09 PM 50.54 41.72 30.20 54.32 33.44 45.0 Not Reported 2.91 S 1.12 SW 11.41 SW No 0.000 No Precipitation 03/20/2019 05:45 AM 03/20/2019 05:50 AM 0.000 0.000 0.000 0.000 0.000 Not Reported Not Reported
03/22/2019 05:14 PM 50.36 41.36 29.48 54.32 33.44 43.0 Not Reported 0.22 W 2.91 W 3.58 S No 0.000 No Precipitation 03/20/2019 05:45 AM 03/20/2019 05:50 AM 0.000 0.000 0.000 0.000 0.000 Not Reported Not Reported
03/22/2019 05:19 PM 50.18 41.18 29.48 54.32 33.44 44.0 Not Reported 3.80 S 0.89 SW 3.58 S No 0.000 No Precipitation 03/20/2019 05:45 AM 03/20/2019 05:50 AM 0.000 0.000 0.000 0.000 0.000 Not Reported Not Reported
03/22/2019 05:24 PM 50.72 42.26 31.64 54.32 33.44 47.0 Not Reported 1.79 W 4.03 N 4.25 S No 0.000 No Precipitation 03/20/2019 05:45 AM 03/20/2019 05:50 AM 0.000 0.000 0.000 0.000 0.000 Not Reported Not Reported
03/22/2019 05:29 PM 50.54 41.72 30.20 54.32 33.44 44.0 Not Reported 3.13 NE 3.80 N 4.25 S No 0.000 No Precipitation 03/20/2019 05:45 AM 03/20/2019 05:50 AM 0.000 0.000 0.000 0.000 0.000 Not Reported Not Reported
03/22/2019 05:34 PM 50.18 41.18 29.48 54.32 33.44 44.0 Not Reported 4.70 NW 5.14 N 4.70 NE No 0.000 No Precipitation 03/20/2019 05:45 AM 03/20/2019 05:50 AM 0.000 0.000 0.000 0.000 0.000 Not Reported Not Reported
03/22/2019 05:39 PM 50.00 41.18 29.48 54.32 33.44 44.0 Not Reported 5.14 NW 2.46 SW 4.70 NE No 0.000 No Precipitation 03/20/2019 05:45 AM 03/20/2019 05:50 AM 0.000 0.000 0.000 0.000 0.000 Not Reported Not Reported
03/22/2019 05:44 PM 49.82 41.36 30.74 54.32 33.44 47.0 Not Reported 4.70 W 1.57 W 5.82 N No 0.000 No Precipitation 03/20/2019 05:45 AM 03/20/2019 05:50 AM 0.000 0.000 0.000 0.000 0.000 Not Reported Not Reported
03/22/2019 05:49 PM 50.00 41.36 30.20 54.32 33.44 45.0 Not Reported 6.26 W 7.38 NW 5.82 N No 0.000 No Precipitation 03/20/2019 05:45 AM 03/20/2019 05:50 AM 0.000 0.000 0.000 0.000 0.000 Not Reported Not Reported
03/22/2019 05:54 PM 49.46 41.18 30.74 54.32 33.44 47.0 Not Reported 9.84 W 6.04 W 10.96 NW No 0.000 No Precipitation 03/20/2019 05:45 AM 03/20/2019 05:50 AM 0.000 0.000 0.000 0.000 0.000 Not Reported Not Reported
03/22/2019 05:59 PM 49.28 41.00 30.20 54.32 33.44 47.0 Not Reported 11.18 SW 8.28 W 10.96 NW No 0.000 No Precipitation 03/20/2019 05:45 AM 03/20/2019 05:50 AM 0.000 0.000 0.000 0.000 0.000 Not Reported Not Reported
03/22/2019 06:04 PM 49.10 41.00 30.20 53.78 31.82 47.0 Not Reported 6.71 W 5.14 W 12.97 W No 0.000 No Precipitation 03/20/2019 05:45 AM 03/20/2019 05:50 AM 0.000 0.000 0.000 0.000 0.000 Not Reported Not Reported
03/22/2019 06:09 PM 49.46 41.18 30.20 53.78 31.82 46.0 Not Reported 4.25 NW 5.37 NW 12.97 W No 0.000 No Precipitation 03/20/2019 05:45 AM 03/20/2019 05:50 AM 0.000 0.000 0.000 0.000 0.000 Not Reported Not Reported
03/22/2019 06:14 PM 49.28 41.00 29.84 53.78 31.82 46.0 Not Reported 4.70 NW 5.37 W 7.83 SW No 0.000 No Precipitation 03/20/2019 05:45 AM 03/20/2019 05:50 AM 0.000 0.000 0.000 0.000 0.000 Not Reported Not Reported
03/22/2019 06:19 PM 49.28 41.00 30.38 53.78 31.82 47.0 Not Reported 7.38 W 6.93 NW 7.83 SW No 0.000 No Precipitation 03/20/2019 05:45 AM 03/20/2019 05:50 AM 0.000 0.000 0.000 0.000 0.000 Not Reported Not Reported
03/22/2019 06:24 PM 49.10 41.00 30.74 53.78 31.82 48.0 Not Reported 7.38 W 12.08 W 10.51 W No 0.000 No Precipitation 03/20/2019 05:45 AM 03/20/2019 05:50 AM 0.000 0.000 0.000 0.000 0.000 Not Reported Not Reported
03/22/2019 06:29 PM 49.10 41.00 30.74 53.78 31.82 48.0 Not Reported 5.59 W 13.20 W 10.51 W No 0.000 No Precipitation 03/20/2019 05:45 AM 03/20/2019 05:50 AM 0.000 0.000 0.000 0.000 0.000 Not Reported Not Reported
03/22/2019 06:34 PM 48.92 41.36 32.00 53.78 31.82 51.0 Not Reported 11.41 W 11.63 W 13.20 W No 0.000 No Precipitation 03/20/2019 05:45 AM 03/20/2019 05:50 AM 0.000 0.000 0.000 0.000 0.000 Not Reported Not Reported
03/22/2019 06:39 PM 48.20 41.00 32.00 53.78 31.82 53.0 Not Reported 11.63 W 7.38 NW 13.20 W No 0.000 No Precipitation 03/20/2019 05:45 AM 03/20/2019 05:50 AM 0.000 0.000 0.000 0.000 0.000 Not Reported Not Reported
03/22/2019 06:44 PM 48.02 41.18 32.54 53.78 31.82 54.0 Not Reported 12.30 W 12.30 W 16.33 W No 0.000 No Precipitation 03/20/2019 05:45 AM 03/20/2019 05:50 AM 0.000 0.000 0.000 0.000 0.000 Not Reported Not Reported
03/22/2019 06:49 PM 48.02 41.36 33.26 53.78 31.82 56.0 Not Reported 7.38 W 6.49 W 16.33 W No 0.000 No Precipitation 03/20/2019 05:45 AM 03/20/2019 05:50 AM 0.000 0.000 0.000 0.000 0.000 Not Reported Not Reported
03/22/2019 06:54 PM 48.02 40.82 31.46 53.78 31.82 52.0 Not Reported 11.41 W 14.09 SW 13.42 W No 0.000 No Precipitation 03/20/2019 05:45 AM 03/20/2019 05:50 AM 0.000 0.000 0.000 0.000 0.000 Not Reported Not Reported
03/22/2019 06:59 PM 48.02 41.18 32.36 53.78 31.82 54.0 Not Reported 4.03 W 3.36 W 13.42 W No 0.000 No Precipitation 03/20/2019 05:45 AM 03/20/2019 05:50 AM 0.000 0.000 0.000 0.000 0.000 Not Reported Not Reported
03/22/2019 07:04 PM 47.48 40.82 32.54 53.78 31.82 55.0 Not Reported 6.93 W 7.61 W 14.76 SW No 0.000 No Precipitation 03/20/2019 05:45 AM 03/20/2019 05:50 AM 0.000 0.000 0.000 0.000 0.000 Not Reported Not Reported
03/22/2019 07:09 PM 47.48 41.00 32.72 53.78 31.82 56.0 Not Reported 6.71 W 4.92 W 14.76 SW No 0.000 No Precipitation 03/20/2019 05:45 AM 03/20/2019 05:50 AM 0.000 0.000 0.000 0.000 0.000 Not Reported Not Reported
03/22/2019 07:14 PM 47.48 41.18 33.26 53.78 31.82 57.0 Not Reported 4.03 SW 1.79 W 8.05 W No 0.000 No Precipitation 03/20/2019 05:45 AM 03/20/2019 05:50 AM 0.000 0.000 0.000 0.000 0.000 Not Reported Not Reported
03/22/2019 07:19 PM 48.02 41.18 32.36 53.78 31.82 54.0 Not Reported 3.80 W 5.14 W 8.05 W No 0.000 No Precipitation 03/20/2019 05:45 AM 03/20/2019 05:50 AM 0.000 0.000 0.000 0.000 0.000 Not Reported Not Reported
03/22/2019 07:24 PM 48.20 40.64 30.56 53.78 31.82 49.0 Not Reported 6.93 SW 8.05 S 5.37 W No 0.000 No Precipitation 03/20/2019 05:45 AM 03/20/2019 05:50 AM 0.000 0.000 0.000 0.000 0.000 Not Reported Not Reported
03/22/2019 07:29 PM 48.56 41.36 32.36 53.78 31.82 53.0 Not Reported 2.68 S 5.59 S 5.37 W No 0.000 No Precipitation 03/20/2019 05:45 AM 03/20/2019 05:50 AM 0.000 0.000 0.000 0.000 0.000 Not Reported Not Reported
03/22/2019 07:34 PM 48.20 41.54 32.90 53.78 31.82 55.0 Not Reported 3.13 S 4.92 S 8.95 S No 0.000 No Precipitation 03/20/2019 05:45 AM 03/20/2019 05:50 AM 0.000 0.000 0.000 0.000 0.000 Not Reported Not Reported
03/22/2019 07:39 PM 47.66 41.00 32.54 53.78 31.82 55.0 Not Reported 3.36 S 4.03 S 8.95 S No 0.000 No Precipitation 03/20/2019 05:45 AM 03/20/2019 05:50 AM 0.000 0.000 0.000 0.000 0.000 Not Reported Not Reported
03/22/2019 07:44 PM 47.48 40.64 31.64 53.78 31.82 53.0 Not Reported 6.26 SE 3.13 SW 5.37 S No 0.000 No Precipitation 03/20/2019 05:45 AM 03/20/2019 05:50 AM 0.000 0.000 0.000 0.000 0.000 Not Reported Not Reported
03/22/2019 07:49 PM 47.30 41.00 32.90 53.78 31.82 56.0 Not Reported 7.38 S 6.26 S 5.37 S No 0.000 No Precipitation 03/20/2019 05:45 AM 03/20/2019 05:50 AM 0.000 0.000 0.000 0.000 0.000 Not Reported Not Reported
03/22/2019 07:54 PM 46.58 40.46 32.72 53.78 31.82 58.0 Not Reported 7.38 S 6.04 S 10.07 S No 0.000 No Precipitation 03/20/2019 05:45 AM 03/20/2019 05:50 AM 0.000 0.000 0.000 0.000 0.000 Not Reported Not Reported
03/22/2019 07:59 PM 46.58 39.74 30.92 53.78 31.82 54.0 Not Reported 3.58 SW 3.13 S 10.07 S No 0.000 No Precipitation 03/20/2019 05:45 AM 03/20/2019 05:50 AM 0.000 0.000 0.000 0.000 0.000 Not Reported Not Reported
03/22/2019 08:04 PM 46.40 40.28 32.54 53.78 31.82 58.0 Not Reported 3.58 S 2.68 S 8.95 S No 0.000 No Precipitation 03/20/2019 05:45 AM 03/20/2019 05:50 AM 0.000 0.000 0.000 0.000 0.000 Not Reported Not Reported
03/22/2019 08:09 PM 46.04 40.28 32.72 53.78 31.82 59.0 Not Reported 2.24 SW 3.13 SW 8.95 S No 0.000 No Precipitation 03/20/2019 05:45 AM 03/20/2019 05:50 AM 0.000 0.000 0.000 0.000 0.000 Not Reported Not Reported
03/22/2019 08:14 PM 46.40 39.74 31.10 53.78 31.82 54.0 Not Reported 4.25 SW 3.36 SW 5.14 S No 0.000 No Precipitation 03/20/2019 05:45 AM 03/20/2019 05:50 AM 0.000 0.000 0.000 0.000 0.000 Not Reported Not Reported
03/22/2019 08:19 PM 46.94 40.28 31.64 53.78 31.82 54.0 Not Reported 1.57 S 2.24 N 5.14 S No 0.000 No Precipitation 03/20/2019 05:45 AM 03/20/2019 05:50 AM 0.000 0.000 0.000 0.000 0.000 Not Reported Not Reported
03/22/2019 08:24 PM 46.94 40.28 31.82 53.78 31.82 55.0 Not Reported 1.57 E 2.24 S 4.92 SW No 0.000 No Precipitation 03/20/2019 05:45 AM 03/20/2019 05:50 AM 0.000 0.000 0.000 0.000 0.000 Not Reported Not Reported
03/22/2019 08:29 PM 46.40 39.92 31.64 53.78 31.82 55.0 Not Reported 5.82 S 8.72 S 4.92 SW No 0.000 No Precipitation 03/20/2019 05:45 AM 03/20/2019 05:50 AM 0.000 0.000 0.000 0.000 0.000 Not Reported Not Reported
03/22/2019 08:34 PM 45.14 39.56 32.18 53.78 31.82 60.0 Not Reported 5.82 S 7.83 S 8.72 S No 0.000 No Precipitation 03/20/2019 05:45 AM 03/20/2019 05:50 AM 0.000 0.000 0.000 0.000 0.000 Not Reported Not Reported
03/22/2019 08:39 PM 45.68 39.56 31.46 53.78 31.82 57.0 Not Reported 9.84 S 15.43 S 8.72 S No 0.000 No Precipitation 03/20/2019 05:45 AM 03/20/2019 05:50 AM 0.000 0.000 0.000 0.000 0.000 Not Reported Not Reported
03/22/2019 08:44 PM 45.86 39.74 32.00 53.78 31.82 57.0 Not Reported 9.17 S 7.83 S 15.43 S No 0.000 No Precipitation 03/20/2019 05:45 AM 03/20/2019 05:50 AM 0.000 0.000 0.000 0.000 0.000 Not Reported Not Reported
03/22/2019 08:49 PM 45.68 39.92 32.54 53.78 31.82 59.0 Not Reported 3.80 S 4.47 S 15.43 S No 0.000 No Precipitation 03/20/2019 05:45 AM 03/20/2019 05:50 AM 0.000 0.000 0.000 0.000 0.000 Not Reported Not Reported
03/22/2019 08:54 PM 45.14 39.74 32.90 53.78 31.82 61.0 Not Reported 9.40 SE 8.72 SE 12.97 S No 0.000 No Precipitation 03/20/2019 05:45 AM 03/20/2019 05:50 AM 0.000 0.000 0.000 0.000 0.000 Not Reported Not Reported
03/22/2019 08:59 PM 45.32 40.10 33.44 53.78 31.82 62.0 Not Reported 10.29 SE 8.95 SE 12.97 S No 0.000 No Precipitation 03/20/2019 05:45 AM 03/20/2019 05:50 AM 0.000 0.000 0.000 0.000 0.000 Not Reported Not Reported
03/22/2019 09:04 PM 45.14 39.92 33.26 53.78 31.82 62.0 Not Reported 7.16 SE 6.49 SE 11.41 SE No 0.000 No Precipitation 03/20/2019 05:45 AM 03/20/2019 05:50 AM 0.000 0.000 0.000 0.000 0.000 Not Reported Not Reported
03/22/2019 09:09 PM 44.60 39.56 32.90 53.78 31.82 63.0 Not Reported 6.49 SE 11.18 SE 11.41 SE No 0.000 No Precipitation 03/20/2019 05:45 AM 03/20/2019 05:50 AM 0.000 0.000 0.000 0.000 0.000 Not Reported Not Reported
03/22/2019 09:14 PM 44.78 39.74 33.26 53.78 31.82 64.0 Not Reported 8.72 SE 7.61 SE 11.18 SE No 0.000 No Precipitation 03/20/2019 05:45 AM 03/20/2019 05:50 AM 0.000 0.000 0.000 0.000 0.000 Not Reported Not Reported
03/22/2019 09:19 PM 44.60 39.56 33.08 53.78 31.82 63.0 Not Reported 9.62 SE 8.50 SE 11.18 SE No 0.000 No Precipitation 03/20/2019 05:45 AM 03/20/2019 05:50 AM 0.000 0.000 0.000 0.000 0.000 Not Reported Not Reported
03/22/2019 09:24 PM 44.06 39.20 32.90 53.78 31.82 64.0 Not Reported 8.05 SE 7.83 SE 11.41 SE No 0.000 No Precipitation 03/20/2019 05:45 AM 03/20/2019 05:50 AM 0.000 0.000 0.000 0.000 0.000 Not Reported Not Reported
03/22/2019 09:29 PM 42.98 38.66 33.08 53.78 31.82 67.0 Not Reported 5.14 S 4.47 S 11.41 SE No 0.000 No Precipitation 03/20/2019 05:45 AM 03/20/2019 05:50 AM 0.000 0.000 0.000 0.000 0.000 Not Reported Not Reported
03/22/2019 09:34 PM 42.44 38.48 33.08 53.78 31.82 69.0 Not Reported 4.25 S 4.03 SE 8.72 SE No 0.000 No Precipitation 03/20/2019 05:45 AM 03/20/2019 05:50 AM 0.000 0.000 0.000 0.000 0.000 Not Reported Not Reported
03/22/2019 09:39 PM 41.72 37.94 33.08 53.78 31.82 71.0 Not Reported 3.58 S 5.14 S 8.72 SE No 0.000 No Precipitation 03/20/2019 05:45 AM 03/20/2019 05:50 AM 0.000 0.000 0.000 0.000 0.000 Not Reported Not Reported
03/22/2019 09:44 PM 42.44 38.12 32.54 53.78 31.82 67.0 Not Reported 5.82 S 7.83 S 6.04 S No 0.000 No Precipitation 03/20/2019 05:45 AM 03/20/2019 05:50 AM 0.000 0.000 0.000 0.000 0.000 Not Reported Not Reported
03/22/2019 09:49 PM 43.16 38.84 33.08 53.78 31.82 67.0 Not Reported 5.14 SE 5.59 S 6.04 S No 0.000 No Precipitation 03/20/2019 05:45 AM 03/20/2019 05:50 AM 0.000 0.000 0.000 0.000 0.000 Not Reported Not Reported
03/22/2019 09:54 PM 42.80 38.48 32.90 53.78 31.82 68.0 Not Reported 3.58 SE 3.13 SE 8.05 SW No 0.000 No Precipitation 03/20/2019 05:45 AM 03/20/2019 05:50 AM 0.000 0.000 0.000 0.000 0.000 Not Reported Not Reported
03/22/2019 09:59 PM 42.80 38.48 32.72 53.78 31.82 67.0 Not Reported 5.14 E 6.49 SE 8.05 SW No 0.000 No Precipitation 03/20/2019 05:45 AM 03/20/2019 05:50 AM 0.000 0.000 0.000 0.000 0.000 Not Reported Not Reported
03/22/2019 10:04 PM 43.34 38.84 32.90 53.78 31.82 66.0 Not Reported 6.04 SE 7.61 SE 6.49 SE No 0.000 No Precipitation 03/20/2019 05:45 AM 03/20/2019 05:50 AM 0.000 0.000 0.000 0.000 0.000 Not Reported Not Reported
03/22/2019 10:09 PM 43.16 38.66 32.90 53.78 31.82 66.0 Not Reported 6.04 SE 7.16 S 6.49 SE No 0.000 No Precipitation 03/20/2019 05:45 AM 03/20/2019 05:50 AM 0.000 0.000 0.000 0.000 0.000 Not Reported Not Reported
03/22/2019 10:14 PM 43.52 38.84 32.36 53.78 31.82 64.0 Not Reported 6.26 SE 6.26 S 8.28 E No 0.000 No Precipitation 03/20/2019 05:45 AM 03/20/2019 05:50 AM 0.000 0.000 0.000 0.000 0.000 Not Reported Not Reported
03/22/2019 10:19 PM 43.70 38.84 32.54 53.78 31.82 64.0 Not Reported 8.05 SE 7.38 S 8.28 E No 0.000 No Precipitation 03/20/2019 05:45 AM 03/20/2019 05:50 AM 0.000 0.000 0.000 0.000 0.000 Not Reported Not Reported
03/22/2019 10:24 PM 43.70 38.84 32.54 53.78 31.82 64.0 Not Reported 5.82 S 4.25 S 9.40 SE No 0.000 No Precipitation 03/20/2019 05:45 AM 03/20/2019 05:50 AM 0.000 0.000 0.000 0.000 0.000 Not Reported Not Reported
03/22/2019 10:29 PM 43.52 38.84 32.72 53.78 31.82 65.0 Not Reported 6.04 S 4.92 SE 9.40 SE No 0.000 No Precipitation 03/20/2019 05:45 AM 03/20/2019 05:50 AM 0.000 0.000 0.000 0.000 0.000 Not Reported Not Reported
03/22/2019 10:34 PM 43.16 38.66 32.72 53.78 31.82 65.0 Not Reported 3.58 S 5.14 SE 7.16 S No 0.000 No Precipitation 03/20/2019 05:45 AM 03/20/2019 05:50 AM 0.000 0.000 0.000 0.000 0.000 Not Reported Not Reported
03/22/2019 10:39 PM 43.52 38.84 32.90 53.78 31.82 65.0 Not Reported 4.70 SE 4.47 SE 7.16 S No 0.000 No Precipitation 03/20/2019 05:45 AM 03/20/2019 05:50 AM 0.000 0.000 0.000 0.000 0.000 Not Reported Not Reported
03/22/2019 10:44 PM 43.16 38.84 33.08 53.78 31.82 67.0 Not Reported 4.47 S 4.03 SW 5.59 SE No 0.000 No Precipitation 03/20/2019 05:45 AM 03/20/2019 05:50 AM 0.000 0.000 0.000 0.000 0.000 Not Reported Not Reported
03/22/2019 10:49 PM 42.80 38.66 33.26 53.78 31.82 68.0 Not Reported 4.70 SW 5.82 SW 5.59 SE No 0.000 No Precipitation 03/20/2019 05:45 AM 03/20/2019 05:50 AM 0.000 0.000 0.000 0.000 0.000 Not Reported Not Reported
03/22/2019 10:54 PM 42.62 38.48 32.90 53.78 31.82 68.0 Not Reported 7.61 SW 5.37 SW 6.49 SE No 0.000 No Precipitation 03/20/2019 05:45 AM 03/20/2019 05:50 AM 0.000 0.000 0.000 0.000 0.000 Not Reported Not Reported
03/22/2019 10:59 PM 42.80 38.66 33.08 53.78 31.82 68.0 Not Reported 4.47 S 4.47 S 6.49 SE No 0.000 No Precipitation 03/20/2019 05:45 AM 03/20/2019 05:50 AM 0.000 0.000 0.000 0.000 0.000 Not Reported Not Reported
03/22/2019 11:04 PM 42.44 38.48 33.08 53.78 31.82 69.0 Not Reported 4.70 S 4.70 S 8.28 SW No 0.000 No Precipitation 03/20/2019 05:45 AM 03/20/2019 05:50 AM 0.000 0.000 0.000 0.000 0.000 Not Reported Not Reported
03/22/2019 11:09 PM 42.62 38.48 33.08 53.78 31.82 68.0 Not Reported 4.92 S 3.80 S 8.28 SW No 0.000 No Precipitation 03/20/2019 05:45 AM 03/20/2019 05:50 AM 0.000 0.000 0.000 0.000 0.000 Not Reported Not Reported
03/22/2019 11:14 PM 42.62 38.48 33.08 53.78 31.82 68.0 Not Reported 2.24 S 1.12 S 5.82 S No 0.000 No Precipitation 03/20/2019 05:45 AM 03/20/2019 05:50 AM 0.000 0.000 0.000 0.000 0.000 Not Reported Not Reported
03/22/2019 11:19 PM 42.62 38.48 32.90 53.78 31.82 68.0 Not Reported 3.13 S 3.80 S 5.82 S No 0.000 No Precipitation 03/20/2019 05:45 AM 03/20/2019 05:50 AM 0.000 0.000 0.000 0.000 0.000 Not Reported Not Reported
03/22/2019 11:24 PM 42.44 38.48 33.26 53.78 31.82 69.0 Not Reported 2.68 SW 2.24 SW 3.80 S No 0.000 No Precipitation 03/20/2019 05:45 AM 03/20/2019 05:50 AM 0.000 0.000 0.000 0.000 0.000 Not Reported Not Reported
03/22/2019 11:29 PM 42.44 38.48 33.26 53.78 31.82 69.0 Not Reported 3.36 S 4.03 S 3.80 S No 0.000 No Precipitation 03/20/2019 05:45 AM 03/20/2019 05:50 AM 0.000 0.000 0.000 0.000 0.000 Not Reported Not Reported
03/22/2019 11:34 PM 42.98 38.66 32.90 53.78 31.82 67.0 Not Reported 4.03 SE 5.37 E 4.70 SE No 0.000 No Precipitation 03/20/2019 05:45 AM 03/20/2019 05:50 AM 0.000 0.000 0.000 0.000 0.000 Not Reported Not Reported
03/22/2019 11:39 PM 42.98 38.66 33.08 53.78 31.82 67.0 Not Reported 6.04 SE 4.25 S 4.70 SE No 0.000 No Precipitation 03/20/2019 05:45 AM 03/20/2019 05:50 AM 0.000 0.000 0.000 0.000 0.000 Not Reported Not Reported
03/22/2019 11:44 PM 42.62 38.30 32.90 53.78 31.82 68.0 Not Reported 4.70 S 5.59 S 6.93 SE No 0.000 No Precipitation 03/20/2019 05:45 AM 03/20/2019 05:50 AM 0.000 0.000 0.000 0.000 0.000 Not Reported Not Reported
03/22/2019 11:49 PM 42.80 38.48 32.72 53.78 31.82 67.0 Not Reported 4.70 S 3.36 S 6.93 SE No 0.000 No Precipitation 03/20/2019 05:45 AM 03/20/2019 05:50 AM 0.000 0.000 0.000 0.000 0.000 Not Reported Not Reported
03/22/2019 11:54 PM 42.98 38.48 32.72 53.78 31.82 66.0 Not Reported 4.47 SE 7.61 SE 6.93 S No 0.000 No Precipitation 03/20/2019 05:45 AM 03/20/2019 05:50 AM 0.000 0.000 0.000 0.000 0.000 Not Reported Not Reported
03/22/2019 11:59 PM 43.34 38.84 32.72 53.78 31.82 66.0 Not Reported 8.28 SE 9.17 E 6.93 S No 0.000 No Precipitation 03/20/2019 05:45 AM 03/20/2019 05:50 AM 0.000 0.000 0.000 0.000 0.000 Not Reported Not Reported